Time;durP1;ratioP1;P1;durP2;ratioP2;P2;SDS_P1;SDS_P2;PMS_P1;PMS_P2;Temp;Humidity;BMP_temperature;BMP_pressure;BME280_temperature;BME280_humidity;BME280_pressure;Samples;Min_cycle;Max_cycle;Signal;HPM_P1;HPM_P2
2022/06/01 00:02:01;;;;;;;14.83;13.83;;;;;;;;;;5220995;28;20275;-81
2022/06/01 00:04:31;;;;;;;16.35;15.13;;;;;;;;;;5220069;28;20271;-81
2022/06/01 00:07:02;;;;;;;17.52;16.33;;;;;;;;;;5202848;28;20017;-81
2022/06/01 00:09:32;;;;;;;16.15;14.68;;;;;;;;;;5202903;28;20019;-81
2022/06/01 00:12:02;;;;;;;16.27;14.98;;;;;;;;;;5202841;28;20021;-81
2022/06/01 00:14:33;;;;;;;17.52;16.23;;;;;;;;;;5220334;28;20096;-81
2022/06/01 00:17:03;;;;;;;15.75;14.20;;;;;;;;;;5222248;28;20017;-80
2022/06/01 00:19:33;;;;;;;15.98;14.85;;;;;;;;;;5226041;28;20013;-80
2022/06/01 00:22:14;;;;;;;18.38;17.08;;;;;;;;;;5217749;28;20100;-81
2022/06/01 00:24:45;;;;;;;19.80;18.50;;;;;;;;;;5216594;28;20036;-80
2022/06/01 00:27:16;;;;;;;17.33;16.05;;;;;;;;;;5198517;28;20391;-80
2022/06/01 00:29:46;;;;;;;17.90;16.48;;;;;;;;;;5215192;28;20026;-80
2022/06/01 00:32:16;;;;;;;20.90;18.73;;;;;;;;;;5216115;28;20105;-80
2022/06/01 00:34:47;;;;;;;20.92;19.38;;;;;;;;;;5215977;28;20260;-80
2022/06/01 00:37:19;;;;;;;19.23;17.70;;;;;;;;;;5216055;28;20029;-80
2022/06/01 00:39:49;;;;;;;18.13;16.80;;;;;;;;;;5215682;28;20268;-80
2022/06/01 00:42:22;;;;;;;18.63;17.20;;;;;;;;;;5201806;28;20094;-80
2022/06/01 00:44:52;;;;;;;22.73;20.80;;;;;;;;;;5201827;28;20029;-80
2022/06/01 00:47:24;;;;;;;21.55;19.50;;;;;;;;;;5219774;28;20025;-80
2022/06/01 00:49:54;;;;;;;21.52;19.90;;;;;;;;;;5201615;28;20021;-80
2022/06/01 00:52:40;;;;;;;18.63;17.27;;;;;;;;;;5202438;28;20021;-80
2022/06/01 00:55:12;;;;;;;19.48;18.15;;;;;;;;;;5219474;28;20069;-80
2022/06/01 00:57:42;;;;;;;20.73;19.17;;;;;;;;;;5218854;28;20032;-80
2022/06/01 01:00:17;;;;;;;19.67;17.52;;;;;;;;;;5219380;28;20030;-80
2022/06/01 01:02:49;;;;;;;20.30;18.52;;;;;;;;;;5201483;28;20487;-80
2022/06/01 01:05:20;;;;;;;20.90;19.40;;;;;;;;;;5219237;28;20068;-81
2022/06/01 01:07:51;;;;;;;20.75;19.30;;;;;;;;;;5219750;28;20022;-81
2022/06/01 01:10:21;;;;;;;22.02;20.42;;;;;;;;;;5202820;28;20017;-81
2022/06/01 01:13:04;;;;;;;19.17;17.73;;;;;;;;;;5217225;28;20140;-81
2022/06/01 01:15:37;;;;;;;18.80;17.52;;;;;;;;;;5201880;28;20260;-81
2022/06/01 01:18:13;;;;;;;20.52;18.73;;;;;;;;;;5200799;28;20022;-81
2022/06/01 01:20:48;;;;;;;20.73;18.52;;;;;;;;;;5218493;28;20041;-81
2022/06/01 01:23:21;;;;;;;21.05;19.17;;;;;;;;;;5218615;28;20028;-81
2022/06/01 01:25:52;;;;;;;18.00;16.70;;;;;;;;;;5201854;28;20580;-81
2022/06/01 01:28:22;;;;;;;19.17;17.70;;;;;;;;;;5217721;28;20072;-81
2022/06/01 01:30:57;;;;;;;18.67;17.27;;;;;;;;;;5202229;28;20463;-81
2022/06/01 01:33:28;;;;;;;20.20;18.52;;;;;;;;;;5217609;28;20100;-81
2022/06/01 01:36:04;;;;;;;17.20;15.80;;;;;;;;;;5221649;28;20394;-81
2022/06/01 01:38:54;;;;;;;17.08;15.85;;;;;;;;;;5206729;28;20021;-81
2022/06/01 01:41:37;;;;;;;17.65;16.52;;;;;;;;;;5206620;28;20026;-81
2022/06/01 01:44:10;;;;;;;16.70;15.35;;;;;;;;;;5224127;28;20055;-81
2022/06/01 01:46:42;;;;;;;14.50;13.48;;;;;;;;;;5206334;28;20025;-81
2022/06/01 01:49:18;;;;;;;15.75;14.55;;;;;;;;;;5223496;28;20021;-81
2022/06/01 01:51:49;;;;;;;13.85;12.48;;;;;;;;;;5205427;28;20026;-81
2022/06/01 01:54:22;;;;;;;13.80;12.85;;;;;;;;;;5224026;28;20022;-81
2022/06/01 01:56:55;;;;;;;14.52;13.30;;;;;;;;;;5224403;28;20045;-81
2022/06/01 01:59:44;;;;;;;14.05;12.90;;;;;;;;;;5223364;28;20033;-81
2022/06/01 02:02:20;;;;;;;14.35;13.30;;;;;;;;;;5222903;28;20021;-82
2022/06/01 02:08:21;;;;;;;13.38;11.95;;;;;;;;;;5218989;28;20035;-81
2022/06/01 02:13:43;;;;;;;12.90;11.75;;;;;;;;;;5218541;28;20025;-81
2022/06/01 02:16:14;;;;;;;14.45;13.38;;;;;;;;;;5211946;28;20013;-81
2022/06/01 02:18:46;;;;;;;13.43;12.35;;;;;;;;;;5210332;28;20025;-81
2022/06/01 02:21:19;;;;;;;16.05;11.57;;;;;;;;;;5209446;28;20067;-81
2022/06/01 02:23:49;;;;;;;12.82;10.98;;;;;;;;;;5208374;28;20018;-81
2022/06/01 02:26:20;;;;;;;14.73;13.43;;;;;;;;;;5207292;28;20395;-81
2022/06/01 02:28:53;;;;;;;11.63;10.73;;;;;;;;;;5212485;28;20056;-81
2022/06/01 02:31:24;;;;;;;17.67;11.88;;;;;;;;;;5229836;28;20077;-81
2022/06/01 02:33:55;;;;;;;13.25;12.25;;;;;;;;;;5211424;28;20074;-81
2022/06/01 02:36:26;;;;;;;10.35;9.63;;;;;;;;;;5211660;28;20036;-81
2022/06/01 02:38:57;;;;;;;10.30;9.57;;;;;;;;;;5207990;28;20029;-81
2022/06/01 02:44:17;;;;;;;9.73;9.13;;;;;;;;;;5221854;28;20056;-81
2022/06/01 02:46:47;;;;;;;10.95;10.20;;;;;;;;;;5204052;28;20025;-81
2022/06/01 02:49:17;;;;;;;11.48;9.77;;;;;;;;;;5222361;28;20029;-81
2022/06/01 02:51:47;;;;;;;10.82;10.02;;;;;;;;;;5203514;28;20013;-81
2022/06/01 02:54:18;;;;;;;9.77;9.07;;;;;;;;;;5217041;28;20018;-81
2022/06/01 02:56:49;;;;;;;9.45;8.75;;;;;;;;;;5200777;28;20112;-81
2022/06/01 02:59:19;;;;;;;9.15;8.63;;;;;;;;;;5201031;28;20029;-81
2022/06/01 03:01:49;;;;;;;12.00;8.43;;;;;;;;;;5219683;28;20060;-81
2022/06/01 03:04:19;;;;;;;8.23;7.67;;;;;;;;;;5200651;28;20014;-83
2022/06/01 03:06:50;;;;;;;9.18;8.32;;;;;;;;;;5213180;28;20263;-81
2022/06/01 03:09:20;;;;;;;11.35;8.60;;;;;;;;;;5193600;28;20482;-82
2022/06/01 03:11:50;;;;;;;10.35;8.38;;;;;;;;;;5215293;28;20035;-82
2022/06/01 03:14:21;;;;;;;16.58;8.52;;;;;;;;;;5215472;28;20068;-81
2022/06/01 03:16:51;;;;;;;7.88;7.40;;;;;;;;;;5212704;28;20707;-82
2022/06/01 03:19:22;;;;;;;8.70;8.10;;;;;;;;;;5197979;28;20021;-82
2022/06/01 03:21:53;;;;;;;8.73;8.13;;;;;;;;;;5212803;28;20025;-82
2022/06/01 03:24:23;;;;;;;8.50;7.97;;;;;;;;;;5215340;28;20021;-81
2022/06/01 03:26:53;;;;;;;9.95;9.25;;;;;;;;;;5213245;28;20599;-82
2022/06/01 03:29:26;;;;;;;8.25;7.70;;;;;;;;;;5215934;28;20026;-82
2022/06/01 03:31:58;;;;;;;10.07;9.38;;;;;;;;;;5217445;28;20029;-81
2022/06/01 03:34:30;;;;;;;9.65;8.90;;;;;;;;;;5196811;28;20105;-82
2022/06/01 03:37:02;;;;;;;8.15;7.55;;;;;;;;;;5218994;28;20076;-81
2022/06/01 03:39:32;;;;;;;8.23;7.63;;;;;;;;;;5218591;28;20416;-82
2022/06/01 03:42:03;;;;;;;9.85;8.88;;;;;;;;;;5218943;28;20029;-81
2022/06/01 03:47:22;;;;;;;7.95;7.45;;;;;;;;;;5218185;28;20130;-81
2022/06/01 03:49:52;;;;;;;12.93;9.05;;;;;;;;;;5218670;28;20480;-81
2022/06/01 03:52:22;;;;;;;8.10;7.53;;;;;;;;;;5219337;28;20045;-81
2022/06/01 03:54:53;;;;;;;8.47;7.83;;;;;;;;;;5216248;28;20024;-82
2022/06/01 03:57:23;;;;;;;16.10;8.85;;;;;;;;;;5228936;22;20328;-83
2022/06/01 03:59:53;;;;;;;8.95;8.35;;;;;;;;;;5213409;28;20044;-80
2022/06/01 04:02:23;;;;;;;9.68;7.78;;;;;;;;;;5215444;28;20022;-81
2022/06/01 04:04:54;;;;;;;9.02;8.15;;;;;;;;;;5197966;28;20024;-82
2022/06/01 04:07:24;;;;;;;8.35;7.72;;;;;;;;;;5237821;28;20041;-85
2022/06/01 04:09:55;;;;;;;8.32;7.50;;;;;;;;;;5230823;28;20064;-86
2022/06/01 04:12:25;;;;;;;7.68;7.18;;;;;;;;;;5243647;28;20021;-82
2022/06/01 04:14:55;;;;;;;10.45;7.68;;;;;;;;;;5225954;28;20028;-85
2022/06/01 04:17:26;;;;;;;9.30;8.75;;;;;;;;;;5219621;28;20028;-86
2022/06/01 04:19:56;;;;;;;7.05;6.60;;;;;;;;;;5225642;28;20013;-85
2022/06/01 04:22:26;;;;;;;7.47;7.07;;;;;;;;;;5256531;28;20009;-83
2022/06/01 04:24:56;;;;;;;7.40;6.68;;;;;;;;;;5226170;28;20017;-83
2022/06/01 04:27:27;;;;;;;8.27;7.70;;;;;;;;;;5226763;28;20421;-84
2022/06/01 04:29:57;;;;;;;6.63;6.07;;;;;;;;;;5243710;28;20021;-85
2022/06/01 04:32:31;;;;;;;11.48;8.27;;;;;;;;;;5210712;28;20045;-82
2022/06/01 04:35:02;;;;;;;7.05;6.55;;;;;;;;;;5243002;28;20033;-84
2022/06/01 04:37:33;;;;;;;6.82;6.43;;;;;;;;;;5243616;28;20025;-84
2022/06/01 04:40:03;;;;;;;8.13;7.50;;;;;;;;;;5243369;28;20017;-84
2022/06/01 04:42:34;;;;;;;7.90;7.38;;;;;;;;;;5225043;28;20092;-82
2022/06/01 04:45:05;;;;;;;6.85;6.35;;;;;;;;;;5242241;28;20060;-81
2022/06/01 04:47:36;;;;;;;8.25;7.03;;;;;;;;;;5223791;28;20025;-81
2022/06/01 04:50:07;;;;;;;6.70;5.85;;;;;;;;;;5242885;28;20029;-82
2022/06/01 04:52:37;;;;;;;6.45;6.05;;;;;;;;;;5240745;28;20106;-85
2022/06/01 04:55:07;;;;;;;8.50;6.28;;;;;;;;;;5223170;28;20013;-84
2022/06/01 04:57:39;;;;;;;6.50;5.43;;;;;;;;;;5223697;28;20398;-84
2022/06/01 05:00:10;;;;;;;7.95;5.72;;;;;;;;;;5223899;28;20029;-84
2022/06/01 05:02:42;;;;;;;5.55;5.28;;;;;;;;;;5241994;28;20066;-82
2022/06/01 05:05:12;;;;;;;6.15;5.65;;;;;;;;;;5223347;28;20021;-85
2022/06/01 05:07:42;;;;;;;6.93;6.28;;;;;;;;;;5225223;28;20028;-86
2022/06/01 05:13:21;;;;;;;5.65;5.25;;;;;;;;;;5236880;28;20013;-83
2022/06/01 05:15:52;;;;;;;6.60;6.00;;;;;;;;;;5219855;28;20092;-84
2022/06/01 05:18:23;;;;;;;9.77;6.57;;;;;;;;;;5234230;28;20035;-82
2022/06/01 05:20:54;;;;;;;6.63;6.13;;;;;;;;;;5233300;28;20063;-84
2022/06/01 05:23:24;;;;;;;13.02;6.43;;;;;;;;;;5225166;28;20030;-83
2022/06/01 05:25:57;;;;;;;8.80;6.07;;;;;;;;;;5213149;28;20021;-83
2022/06/01 05:28:28;;;;;;;6.57;6.18;;;;;;;;;;5214829;28;20021;-82
2022/06/01 05:31:00;;;;;;;7.30;6.78;;;;;;;;;;5214843;28;20021;-84
2022/06/01 05:33:30;;;;;;;7.50;5.88;;;;;;;;;;5212570;28;20017;-83
2022/06/01 05:36:01;;;;;;;7.15;5.18;;;;;;;;;;5212324;28;20067;-84
2022/06/01 05:38:31;;;;;;;6.03;5.70;;;;;;;;;;5197957;28;20109;-83
2022/06/01 05:41:02;;;;;;;6.10;5.70;;;;;;;;;;5196627;28;20030;-82
2022/06/01 05:43:33;;;;;;;16.17;6.82;;;;;;;;;;5196704;28;20041;-84
2022/06/01 05:46:04;;;;;;;4.88;4.43;;;;;;;;;;5196841;28;20048;-83
2022/06/01 05:48:35;;;;;;;6.30;5.72;;;;;;;;;;5215684;28;20028;-83
2022/06/01 05:51:06;;;;;;;7.22;6.40;;;;;;;;;;5215574;28;20048;-84
2022/06/01 05:53:36;;;;;;;7.03;5.90;;;;;;;;;;5215028;28;20026;-83
2022/06/01 05:56:06;;;;;;;5.95;5.65;;;;;;;;;;5197474;28;20017;-84
2022/06/01 05:58:36;;;;;;;7.32;6.60;;;;;;;;;;5205640;28;20113;-81
2022/06/01 06:01:07;;;;;;;8.98;6.13;;;;;;;;;;5206798;28;20072;-81
2022/06/01 06:03:37;;;;;;;8.70;5.32;;;;;;;;;;5224081;28;20080;-83
2022/06/01 06:16:48;;;;;;;6.72;5.13;;;;;;;;;;1730485;22;20045;-63
2022/06/01 06:19:19;;;;;;;6.80;6.20;;;;;;;;;;5214656;22;20052;-83
2022/06/01 06:21:49;;;;;;;8.50;7.13;;;;;;;;;;5218749;28;20461;-81
2022/06/01 06:24:21;;;;;;;12.88;7.30;;;;;;;;;;5200306;28;20025;-83
2022/06/01 06:26:51;;;;;;;5.82;5.50;;;;;;;;;;5200872;28;20033;-83
2022/06/01 06:29:21;;;;;;;8.32;6.43;;;;;;;;;;5219152;28;20025;-83
2022/06/01 06:31:52;;;;;;;7.22;6.63;;;;;;;;;;5242392;22;20037;-83
2022/06/01 06:34:22;;;;;;;10.82;8.30;;;;;;;;;;5236938;28;20013;-83
2022/06/01 06:36:53;;;;;;;11.50;7.65;;;;;;;;;;5238446;28;20013;-83
2022/06/01 06:39:23;;;;;;;10.18;9.32;;;;;;;;;;5237325;28;20092;-83
2022/06/01 06:41:54;;;;;;;7.33;6.83;;;;;;;;;;5220970;28;20048;-84
2022/06/01 06:44:24;;;;;;;6.30;5.80;;;;;;;;;;5238431;28;20321;-82
2022/06/01 06:46:54;;;;;;;8.05;6.20;;;;;;;;;;5220800;28;20268;-83
2022/06/01 06:49:25;;;;;;;6.80;6.35;;;;;;;;;;5218802;28;20096;-81
2022/06/01 06:51:55;;;;;;;16.00;9.93;;;;;;;;;;5218874;28;20009;-86
2022/06/01 06:54:27;;;;;;;14.45;11.48;;;;;;;;;;5220215;28;20140;-84
2022/06/01 06:56:57;;;;;;;14.80;12.38;;;;;;;;;;5221235;28;20532;-85
2022/06/01 06:59:27;;;;;;;36.03;13.93;;;;;;;;;;5219530;28;20060;-84
2022/06/01 07:01:57;;;;;;;9.18;8.15;;;;;;;;;;5217623;28;20282;-82
2022/06/01 07:04:28;;;;;;;8.33;7.70;;;;;;;;;;5234546;28;20043;-85
2022/06/01 07:06:58;;;;;;;8.77;6.73;;;;;;;;;;5219058;28;20263;-84
2022/06/01 07:09:28;;;;;;;6.93;6.30;;;;;;;;;;5218862;28;20354;-86
2022/06/01 07:11:58;;;;;;;8.20;7.10;;;;;;;;;;5219003;28;20021;-85
2022/06/01 07:14:29;;;;;;;8.33;7.60;;;;;;;;;;5236681;28;20303;-85
2022/06/01 07:17:00;;;;;;;9.17;6.87;;;;;;;;;;5234205;28;20291;-86
2022/06/01 07:19:31;;;;;;;8.20;7.50;;;;;;;;;;5217631;28;20259;-86
2022/06/01 07:22:02;;;;;;;10.40;8.23;;;;;;;;;;5217327;28;20446;-86
2022/06/01 07:24:32;;;;;;;8.32;7.68;;;;;;;;;;5216002;28;20020;-86
2022/06/01 07:27:06;;;;;;;7.13;6.30;;;;;;;;;;5214029;28;20056;-86
2022/06/01 07:29:41;;;;;;;6.65;6.25;;;;;;;;;;5214734;28;20037;-86
2022/06/01 07:32:11;;;;;;;9.85;7.03;;;;;;;;;;5213323;28;20025;-86
2022/06/01 07:34:46;;;;;;;7.78;6.82;;;;;;;;;;5212991;28;20021;-86
2022/06/01 07:43:06;;;;;;;7.57;6.97;;;;;;;;;;5231254;28;20032;-86
2022/06/01 07:45:41;;;;;;;11.32;6.07;;;;;;;;;;5212296;28;20483;-86
2022/06/01 07:48:16;;;;;;;6.90;6.30;;;;;;;;;;5213039;28;20382;-86
2022/06/01 07:50:48;;;;;;;5.65;5.25;;;;;;;;;;5212210;28;20021;-86
2022/06/01 07:53:18;;;;;;;5.35;4.95;;;;;;;;;;5211529;28;20021;-87
2022/06/01 07:55:49;;;;;;;5.53;5.13;;;;;;;;;;5210959;28;20060;-86
2022/06/01 07:58:19;;;;;;;6.30;5.72;;;;;;;;;;5211035;28;20044;-87
2022/06/01 08:00:50;;;;;;;8.63;6.40;;;;;;;;;;5228390;28;20453;-87
2022/06/01 08:03:22;;;;;;;5.70;5.30;;;;;;;;;;5209958;28;20024;-86
2022/06/01 08:05:52;;;;;;;6.90;6.32;;;;;;;;;;5194381;28;20475;-88
2022/06/01 08:08:22;;;;;;;6.63;5.82;;;;;;;;;;5227122;28;20021;-88
2022/06/01 08:10:53;;;;;;;5.40;5.07;;;;;;;;;;5209464;28;20071;-88
2022/06/01 08:13:23;;;;;;;5.00;4.70;;;;;;;;;;5211276;28;20021;-87
2022/06/01 08:15:56;;;;;;;7.10;5.80;;;;;;;;;;5194105;28;20283;-87
2022/06/01 08:18:26;;;;;;;5.57;5.18;;;;;;;;;;5191134;28;20264;-87
2022/06/01 08:20:57;;;;;;;7.63;5.80;;;;;;;;;;5214131;28;20450;-87
2022/06/01 08:23:28;;;;;;;4.70;4.32;;;;;;;;;;5205088;28;20026;-88
2022/06/01 08:25:59;;;;;;;6.03;5.60;;;;;;;;;;5206583;28;20083;-87
2022/06/01 08:28:29;;;;;;;6.22;5.72;;;;;;;;;;5189553;28;20110;-87
2022/06/01 08:30:59;;;;;;;5.85;5.30;;;;;;;;;;5188991;28;20033;-87
2022/06/01 08:33:29;;;;;;;6.23;5.77;;;;;;;;;;5206393;28;20021;-87
2022/06/01 08:36:00;;;;;;;8.60;6.07;;;;;;;;;;5188356;28;20264;-88
2022/06/01 08:38:30;;;;;;;5.50;5.10;;;;;;;;;;5207060;28;20267;-87
2022/06/01 08:41:10;;;;;;;6.23;5.73;;;;;;;;;;5188425;28;20108;-88
2022/06/01 08:43:43;;;;;;;5.88;5.32;;;;;;;;;;5206865;28;20283;-88
2022/06/01 08:46:15;;;;;;;6.75;5.20;;;;;;;;;;5189646;28;20022;-87
2022/06/01 08:49:12;;;;;;;5.00;4.70;;;;;;;;;;5190964;28;20031;-88
2022/06/01 08:51:42;;;;;;;10.00;5.97;;;;;;;;;;5191435;28;20021;-87
2022/06/01 08:54:12;;;;;;;4.15;3.88;;;;;;;;;;5208620;28;20372;-87
2022/06/01 08:56:44;;;;;;;16.60;4.65;;;;;;;;;;5189400;28;20083;-88
2022/06/01 08:59:14;;;;;;;5.20;4.88;;;;;;;;;;5206703;28;20073;-88
2022/06/01 09:01:55;;;;;;;6.10;5.37;;;;;;;;;;5213633;28;20021;-90
2022/06/01 09:04:34;;;;;;;6.32;5.88;;;;;;;;;;5201127;28;20403;-89
2022/06/01 09:07:23;;;;;;;5.80;4.65;;;;;;;;;;5216370;28;20052;-90
2022/06/01 09:09:53;;;;;;;3.50;3.30;;;;;;;;;;5211011;28;20029;-91
2022/06/01 09:12:24;;;;;;;4.37;4.07;;;;;;;;;;5211293;28;20023;-89
2022/06/01 09:14:57;;;;;;;4.88;4.47;;;;;;;;;;5195929;28;20093;-88
2022/06/01 09:17:28;;;;;;;4.82;4.53;;;;;;;;;;5191626;28;20020;-89
2022/06/01 09:22:53;;;;;;;8.20;3.83;;;;;;;;;;5210727;28;20407;-87
2022/06/01 09:25:28;;;;;;;5.40;3.47;;;;;;;;;;5193055;28;20471;-89
2022/06/01 09:28:02;;;;;;;4.55;4.30;;;;;;;;;;5196827;28;20487;-88
2022/06/01 09:30:37;;;;;;;6.65;3.95;;;;;;;;;;5193892;28;20025;-88
2022/06/01 09:33:28;;;;;;;3.55;3.35;;;;;;;;;;5193642;28;20025;-88
2022/06/01 09:36:07;;;;;;;5.70;4.22;;;;;;;;;;5210760;28;20468;-86
2022/06/01 09:38:38;;;;;;;4.40;3.95;;;;;;;;;;5217703;28;20037;-85
2022/06/01 09:41:09;;;;;;;3.30;3.17;;;;;;;;;;5197606;28;20605;-85
2022/06/01 09:43:40;;;;;;;8.60;5.05;;;;;;;;;;5214944;28;20321;-84
2022/06/01 09:46:28;;;;;;;4.65;3.17;;;;;;;;;;5213442;28;20101;-88
2022/06/01 09:49:03;;;;;;;4.22;2.72;;;;;;;;;;5179260;28;20480;-89
2022/06/01 09:51:37;;;;;;;3.67;3.47;;;;;;;;;;5211867;28;20018;-88
2022/06/01 09:54:12;;;;;;;8.02;4.00;;;;;;;;;;5193505;28;20395;-88
2022/06/01 09:56:46;;;;;;;3.92;2.65;;;;;;;;;;5177207;28;20109;-87
2022/06/01 10:08:25;;;;;;;6.03;3.40;;;;;;;;;;5212163;28;20091;-89
2022/06/01 10:11:00;;;;;;;5.65;3.03;;;;;;;;;;5193235;28;20038;-89
2022/06/01 10:13:34;;;;;;;2.75;2.55;;;;;;;;;;5193997;28;20017;-88
2022/06/01 10:16:16;;;;;;;2.33;2.22;;;;;;;;;;5193280;28;20022;-89
2022/06/01 10:18:49;;;;;;;4.50;4.18;;;;;;;;;;5210500;28;20333;-88
2022/06/01 10:21:26;;;;;;;3.88;3.67;;;;;;;;;;5191833;28;20093;-88
2022/06/01 10:24:21;;;;;;;2.88;2.65;;;;;;;;;;5191254;28;20088;-89
2022/06/01 10:26:55;;;;;;;3.78;3.47;;;;;;;;;;5187797;28;20033;-88
2022/06/01 10:29:28;;;;;;;3.15;2.95;;;;;;;;;;5209132;28;20018;-88
2022/06/01 10:32:04;;;;;;;3.15;2.92;;;;;;;;;;5208934;28;20049;-88
2022/06/01 10:34:42;;;;;;;7.70;3.10;;;;;;;;;;5193226;28;20071;-88
2022/06/01 10:37:20;;;;;;;3.08;2.83;;;;;;;;;;5195620;28;20021;-89
2022/06/01 10:39:59;;;;;;;4.82;4.50;;;;;;;;;;5197448;28;20078;-89
2022/06/01 10:43:18;;;;;;;2.85;2.75;;;;;;;;;;5225283;28;20109;-88
2022/06/01 10:45:52;;;;;;;3.33;3.13;;;;;;;;;;5191346;28;20029;-88
2022/06/01 10:48:29;;;;;;;3.75;3.45;;;;;;;;;;5194189;28;20030;-91
2022/06/01 10:51:21;;;;;;;8.30;5.45;;;;;;;;;;5189100;28;20032;-86
2022/06/01 10:54:10;;;;;;;7.47;7.05;;;;;;;;;;5218015;28;20014;-88
2022/06/01 10:56:41;;;;;;;;;;;;;;;;;;5214071;28;20017;-86
2022/06/01 10:59:13;;;;;;;6.47;6.00;;;;;;;;;;5196212;28;19916;-87
2022/06/01 11:01:47;;;;;;;7.80;7.32;;;;;;;;;;5192614;28;20427;-89
2022/06/01 11:04:52;;;;;;;8.60;7.97;;;;;;;;;;5211429;28;20032;-89
2022/06/01 11:07:46;;;;;;;6.30;6.00;;;;;;;;;;5181137;28;20037;-87
2022/06/01 11:10:53;;;;;;;6.97;6.57;;;;;;;;;;5208230;28;20120;-89
2022/06/01 11:13:55;;;;;;;8.85;6.10;;;;;;;;;;5197784;28;20346;-89
2022/06/01 11:17:16;;;;;;;5.70;5.40;;;;;;;;;;5174752;28;20030;-89
2022/06/01 11:20:30;;;;;;;7.30;6.55;;;;;;;;;;5166163;28;20032;-90
2022/06/01 11:23:09;;;;;;;8.75;7.90;;;;;;;;;;5191965;28;20025;-89
2022/06/01 11:25:44;;;;;;;5.88;4.70;;;;;;;;;;5190685;28;20021;-88
2022/06/01 11:28:35;;;;;;;5.30;5.03;;;;;;;;;;5208805;28;20025;-89
2022/06/01 11:31:08;;;;;;;5.95;5.45;;;;;;;;;;5191998;28;20029;-89
2022/06/01 11:33:47;;;;;;;4.22;3.97;;;;;;;;;;5207570;28;20091;-88
2022/06/01 11:36:36;;;;;;;4.97;4.68;;;;;;;;;;5188393;28;20036;-89
2022/06/01 11:39:25;;;;;;;4.25;3.75;;;;;;;;;;5190185;28;20021;-88
2022/06/01 11:42:00;;;;;;;3.45;3.25;;;;;;;;;;5191567;28;20300;-87
2022/06/01 11:44:34;;;;;;;3.53;3.22;;;;;;;;;;5191192;28;20017;-88
2022/06/01 11:47:08;;;;;;;3.85;3.38;;;;;;;;;;5190947;28;20025;-87
2022/06/01 11:49:40;;;;;;;2.67;2.58;;;;;;;;;;5208245;28;20071;-88
2022/06/01 11:52:16;;;;;;;5.40;3.85;;;;;;;;;;5198330;28;20467;-89
2022/06/01 11:54:54;;;;;;;4.03;3.83;;;;;;;;;;5199303;28;20029;-88
2022/06/01 11:57:26;;;;;;;4.07;3.78;;;;;;;;;;5200103;28;20017;-87
2022/06/01 12:00:15;;;;;;;5.35;4.57;;;;;;;;;;5198297;28;20018;-89
2022/06/01 12:02:50;;;;;;;3.05;2.85;;;;;;;;;;5218844;28;20037;-90
2022/06/01 12:05:21;;;;;;;3.88;3.55;;;;;;;;;;5197129;28;20018;-88
2022/06/01 12:07:57;;;;;;;4.05;3.75;;;;;;;;;;5191896;28;20037;-89
2022/06/01 12:10:48;;;;;;;4.28;3.97;;;;;;;;;;5190341;28;20494;-88
2022/06/01 12:13:23;;;;;;;4.72;4.43;;;;;;;;;;5185534;28;20068;-88
2022/06/01 12:16:12;;;;;;;5.03;4.63;;;;;;;;;;5207712;28;20092;-89
2022/06/01 12:18:54;;;;;;;6.22;5.78;;;;;;;;;;5188988;28;20021;-88
2022/06/01 12:21:25;;;;;;;4.68;4.40;;;;;;;;;;5190388;28;20108;-89
2022/06/01 12:30:08;;;;;;;4.47;4.18;;;;;;;;;;5208570;28;20025;-90
2022/06/01 12:32:58;;;;;;;3.85;3.65;;;;;;;;;;5211542;22;20577;-62
2022/06/01 12:35:42;;;;;;;3.63;3.40;;;;;;;;;;5186788;28;20036;-62
2022/06/01 12:38:28;;;;;;;3.17;3.08;;;;;;;;;;5190546;28;20013;-62
2022/06/01 12:41:03;;;;;;;4.05;3.85;;;;;;;;;;5189930;28;20079;-61
2022/06/01 12:43:35;;;;;;;3.97;3.78;;;;;;;;;;5190574;28;20393;-62
2022/06/01 12:46:18;;;;;;;3.78;3.60;;;;;;;;;;5190364;28;20018;-63
2022/06/01 12:48:49;;;;;;;3.78;3.55;;;;;;;;;;5189781;28;20033;-62
2022/06/01 12:51:19;;;;;;;3.10;3.00;;;;;;;;;;5189693;28;20022;-61
2022/06/01 12:53:51;;;;;;;4.65;3.92;;;;;;;;;;5207663;28;20013;-64
2022/06/01 12:56:26;;;;;;;3.97;3.67;;;;;;;;;;5189853;28;20032;-64
2022/06/01 12:59:14;;;;;;;3.25;3.15;;;;;;;;;;5207475;28;20437;-63
2022/06/01 13:01:48;;;;;;;3.80;3.67;;;;;;;;;;5189765;28;20061;-63
2022/06/01 13:04:24;;;;;;;4.00;3.70;;;;;;;;;;5207350;28;20030;-63
2022/06/01 13:06:55;;;;;;;3.17;3.00;;;;;;;;;;5189890;28;20049;-65
2022/06/01 13:09:56;;;;;;;7.28;4.07;;;;;;;;;;5173471;28;20144;-60
2022/06/01 13:12:29;;;;;;;3.88;3.63;;;;;;;;;;5169095;28;20404;-62
2022/06/01 13:15:26;;;;;;;2.67;2.58;;;;;;;;;;5189315;28;20588;-63
2022/06/01 13:17:58;;;;;;;6.93;3.17;;;;;;;;;;5187819;28;20057;-61
2022/06/01 13:20:35;;;;;;;2.83;2.67;;;;;;;;;;5189872;28;20508;-61
2022/06/01 13:23:11;;;;;;;2.03;1.98;;;;;;;;;;5189313;28;20058;-60
2022/06/01 13:25:41;;;;;;;2.10;2.00;;;;;;;;;;5189015;28;20051;-61
2022/06/01 13:28:12;;;;;;;2.45;2.15;;;;;;;;;;5189407;28;20029;-62
2022/06/01 13:30:43;;;;;;;2.20;2.10;;;;;;;;;;5189176;28;20389;-61
2022/06/01 13:33:16;;;;;;;2.10;2.00;;;;;;;;;;5207206;28;20025;-63
2022/06/01 13:35:54;;;;;;;1.77;1.77;;;;;;;;;;5188926;28;20025;-63
2022/06/01 13:38:32;;;;;;;2.00;1.90;;;;;;;;;;5189437;28;20025;-64
2022/06/01 13:41:08;;;;;;;1.73;1.70;;;;;;;;;;5189206;28;20014;-62
2022/06/01 13:43:42;;;;;;;2.75;2.65;;;;;;;;;;5189266;28;20021;-62
2022/06/01 13:46:14;;;;;;;2.53;2.42;;;;;;;;;;5189096;28;20017;-63
2022/06/01 13:48:48;;;;;;;4.97;4.63;;;;;;;;;;5190429;28;20025;-64
2022/06/01 13:51:25;;;;;;;4.75;4.53;;;;;;;;;;5189140;28;20037;-62
2022/06/01 13:53:58;;;;;;;7.05;6.35;;;;;;;;;;5188969;28;20021;-62
2022/06/01 13:56:41;;;;;;;7.53;6.90;;;;;;;;;;5188869;28;20097;-62
2022/06/01 13:59:26;;;;;;;8.30;7.55;;;;;;;;;;5188997;28;20029;-62
2022/06/01 14:02:09;;;;;;;6.95;6.55;;;;;;;;;;5189007;28;20053;-63
2022/06/01 14:04:48;;;;;;;7.38;6.88;;;;;;;;;;5188618;28;20033;-63
2022/06/01 14:07:19;;;;;;;10.32;7.57;;;;;;;;;;5189320;28;20028;-64
2022/06/01 14:09:51;;;;;;;7.43;6.82;;;;;;;;;;5189113;28;20473;-62
2022/06/01 14:12:21;;;;;;;9.48;8.13;;;;;;;;;;5206750;28;20559;-62
2022/06/01 14:14:54;;;;;;;7.40;6.78;;;;;;;;;;5188823;28;20044;-62
2022/06/01 14:17:26;;;;;;;7.13;6.53;;;;;;;;;;5189662;28;20827;-65
2022/06/01 14:19:56;;;;;;;7.28;6.80;;;;;;;;;;5189226;28;20470;-63
2022/06/01 14:22:26;;;;;;;6.50;6.18;;;;;;;;;;5189321;28;20017;-66
2022/06/01 14:30:35;;;;;;;28.47;10.17;;;;;;;;;;5206172;28;20295;-60
2022/06/01 14:33:06;;;;;;;6.95;6.45;;;;;;;;;;5187720;28;20482;-60
2022/06/01 14:35:36;;;;;;;5.50;5.20;;;;;;;;;;5186824;28;20021;-60
2022/06/01 14:38:07;;;;;;;6.68;6.20;;;;;;;;;;5187108;28;20022;-61
2022/06/01 14:40:37;;;;;;;5.28;4.78;;;;;;;;;;5187454;28;20021;-62
2022/06/01 14:43:08;;;;;;;6.32;6.03;;;;;;;;;;5187301;28;20037;-62
2022/06/01 14:45:38;;;;;;;7.05;6.55;;;;;;;;;;5188215;28;20349;-62
2022/06/01 14:48:09;;;;;;;6.47;5.97;;;;;;;;;;5173937;28;20056;-61
2022/06/01 14:50:39;;;;;;;6.68;6.28;;;;;;;;;;5167261;28;20530;-62
2022/06/01 14:53:21;;;;;;;6.22;5.82;;;;;;;;;;5167020;28;20366;-62
2022/06/01 14:55:51;;;;;;;5.88;5.57;;;;;;;;;;5184105;28;20022;-62
2022/06/01 14:58:21;;;;;;;6.93;6.53;;;;;;;;;;5165909;28;20024;-63
2022/06/01 15:00:52;;;;;;;7.28;6.88;;;;;;;;;;5184383;28;20386;-61
2022/06/01 15:09:24;;;;;;;5.25;5.03;;;;;;;;;;5183526;28;20087;-62
2022/06/01 15:11:55;;;;;;;5.63;5.32;;;;;;;;;;5167522;28;20010;-63
2022/06/01 15:14:25;;;;;;;4.47;4.28;;;;;;;;;;5166797;28;20010;-64
2022/06/01 15:16:57;;;;;;;4.15;3.95;;;;;;;;;;5166844;28;20014;-64
2022/06/01 15:19:29;;;;;;;4.55;4.35;;;;;;;;;;5166265;28;20029;-64
2022/06/01 15:21:59;;;;;;;5.25;4.95;;;;;;;;;;5165784;28;20367;-64
2022/06/01 15:24:30;;;;;;;5.30;3.80;;;;;;;;;;5165253;28;20026;-65
2022/06/01 15:27:00;;;;;;;7.63;2.92;;;;;;;;;;5165660;28;20013;-64
2022/06/01 15:40:46;;;;;;;1.70;1.60;;;;;;;;;;5203905;28;20084;-64
2022/06/01 15:43:17;;;;;;;2.15;2.05;;;;;;;;;;5187178;28;20029;-64
2022/06/01 15:45:48;;;;;;;3.42;1.95;;;;;;;;;;5166275;28;20538;-63
2022/06/01 15:48:20;;;;;;;2.08;1.98;;;;;;;;;;5166836;28;20026;-64
2022/06/01 15:50:52;;;;;;;2.00;1.90;;;;;;;;;;5166203;28;20195;-63
2022/06/01 15:53:22;;;;;;;2.38;2.28;;;;;;;;;;5181136;28;20113;-64
2022/06/01 15:55:53;;;;;;;2.20;2.10;;;;;;;;;;5178625;28;20469;-65
2022/06/01 15:58:23;;;;;;;2.38;2.28;;;;;;;;;;5166478;28;20112;-63
2022/06/01 16:00:54;;;;;;;1.90;1.80;;;;;;;;;;5166466;28;20013;-64
2022/06/01 16:03:24;;;;;;;2.00;1.90;;;;;;;;;;5165719;28;20017;-64
2022/06/01 16:05:54;;;;;;;2.75;2.65;;;;;;;;;;5166118;28;20102;-62
2022/06/01 16:08:25;;;;;;;1.83;1.83;;;;;;;;;;5176013;28;20040;-64
2022/06/01 16:10:55;;;;;;;2.15;2.05;;;;;;;;;;5185559;28;20017;-65
2022/06/01 16:13:25;;;;;;;2.13;2.03;;;;;;;;;;5186350;28;20313;-63
2022/06/01 16:15:56;;;;;;;2.85;2.72;;;;;;;;;;5186405;28;20104;-63
2022/06/01 16:18:26;;;;;;;2.38;2.17;;;;;;;;;;5186711;28;20022;-63
2022/06/01 16:20:56;;;;;;;2.33;2.15;;;;;;;;;;5186371;28;20380;-63
2022/06/01 16:23:27;;;;;;;4.13;2.13;;;;;;;;;;5186309;28;20018;-63
2022/06/01 16:25:58;;;;;;;2.47;2.38;;;;;;;;;;5185978;28;20036;-63
2022/06/01 16:28:28;;;;;;;2.70;2.50;;;;;;;;;;5186489;28;20579;-62
2022/06/01 16:30:58;;;;;;;2.20;2.10;;;;;;;;;;5204580;28;20417;-63